sensor_id;sensor_type;location;lat;lon;timestamp;P1;durP1;ratioP1;P2;durP2;ratioP2
14470;SDS011;7321;50.802;4.336;2024-03-07T00:02:04;14.13;;;12.07;;
14470;SDS011;7321;50.802;4.336;2024-03-07T00:04:31;14.43;;;12.87;;
14470;SDS011;7321;50.802;4.336;2024-03-07T00:06:57;18.57;;;13.73;;
14470;SDS011;7321;50.802;4.336;2024-03-07T00:09:23;17.80;;;12.70;;
14470;SDS011;7321;50.802;4.336;2024-03-07T00:11:49;16.03;;;13.47;;
14470;SDS011;7321;50.802;4.336;2024-03-07T00:14:15;21.27;;;15.93;;
14470;SDS011;7321;50.802;4.336;2024-03-07T00:16:41;22.20;;;16.20;;
14470;SDS011;7321;50.802;4.336;2024-03-07T00:19:07;21.57;;;16.10;;
14470;SDS011;7321;50.802;4.336;2024-03-07T00:21:33;21.50;;;16.23;;
14470;SDS011;7321;50.802;4.336;2024-03-07T00:23:59;24.83;;;18.17;;
14470;SDS011;7321;50.802;4.336;2024-03-07T00:26:26;23.47;;;18.57;;
14470;SDS011;7321;50.802;4.336;2024-03-07T00:28:51;26.47;;;18.43;;
14470;SDS011;7321;50.802;4.336;2024-03-07T00:31:17;24.90;;;18.60;;
14470;SDS011;7321;50.802;4.336;2024-03-07T00:33:44;23.77;;;18.10;;
14470;SDS011;7321;50.802;4.336;2024-03-07T00:36:10;25.90;;;20.13;;
14470;SDS011;7321;50.802;4.336;2024-03-07T00:38:37;29.60;;;20.40;;
14470;SDS011;7321;50.802;4.336;2024-03-07T00:41:03;30.13;;;19.97;;
14470;SDS011;7321;50.802;4.336;2024-03-07T00:43:29;27.33;;;20.97;;
14470;SDS011;7321;50.802;4.336;2024-03-07T00:45:56;33.30;;;23.63;;
14470;SDS011;7321;50.802;4.336;2024-03-07T00:48:21;33.40;;;22.67;;
14470;SDS011;7321;50.802;4.336;2024-03-07T00:50:50;34.33;;;24.07;;
14470;SDS011;7321;50.802;4.336;2024-03-07T00:53:15;31.50;;;23.53;;
14470;SDS011;7321;50.802;4.336;2024-03-07T00:55:41;35.50;;;24.63;;
14470;SDS011;7321;50.802;4.336;2024-03-07T00:58:07;35.50;;;25.33;;
14470;SDS011;7321;50.802;4.336;2024-03-07T01:00:33;40.37;;;26.20;;
14470;SDS011;7321;50.802;4.336;2024-03-07T01:02:59;41.17;;;27.13;;
14470;SDS011;7321;50.802;4.336;2024-03-07T01:05:25;41.63;;;27.07;;
14470;SDS011;7321;50.802;4.336;2024-03-07T01:07:51;42.33;;;28.73;;
14470;SDS011;7321;50.802;4.336;2024-03-07T01:10:18;44.03;;;30.27;;
14470;SDS011;7321;50.802;4.336;2024-03-07T01:12:43;45.17;;;30.37;;
14470;SDS011;7321;50.802;4.336;2024-03-07T01:15:10;51.93;;;33.43;;
14470;SDS011;7321;50.802;4.336;2024-03-07T01:17:36;48.27;;;32.13;;
14470;SDS011;7321;50.802;4.336;2024-03-07T01:20:02;46.80;;;32.03;;
14470;SDS011;7321;50.802;4.336;2024-03-07T01:22:29;53.93;;;34.97;;
14470;SDS011;7321;50.802;4.336;2024-03-07T01:24:55;52.80;;;35.40;;
14470;SDS011;7321;50.802;4.336;2024-03-07T01:27:21;53.43;;;34.30;;
14470;SDS011;7321;50.802;4.336;2024-03-07T01:29:49;56.23;;;35.70;;
14470;SDS011;7321;50.802;4.336;2024-03-07T01:32:15;57.90;;;36.90;;
14470;SDS011;7321;50.802;4.336;2024-03-07T01:34:41;54.60;;;35.30;;
14470;SDS011;7321;50.802;4.336;2024-03-07T01:37:07;54.27;;;35.80;;
14470;SDS011;7321;50.802;4.336;2024-03-07T01:39:33;52.87;;;35.00;;
14470;SDS011;7321;50.802;4.336;2024-03-07T01:41:59;56.80;;;36.83;;
14470;SDS011;7321;50.802;4.336;2024-03-07T01:44:25;55.87;;;36.37;;
14470;SDS011;7321;50.802;4.336;2024-03-07T01:46:51;55.47;;;36.33;;
14470;SDS011;7321;50.802;4.336;2024-03-07T01:49:17;58.70;;;37.13;;
14470;SDS011;7321;50.802;4.336;2024-03-07T01:51:43;57.40;;;37.07;;
14470;SDS011;7321;50.802;4.336;2024-03-07T01:54:09;55.67;;;37.50;;
14470;SDS011;7321;50.802;4.336;2024-03-07T01:56:36;59.63;;;37.80;;
14470;SDS011;7321;50.802;4.336;2024-03-07T01:59:03;56.57;;;35.70;;
14470;SDS011;7321;50.802;4.336;2024-03-07T02:01:30;55.03;;;36.73;;
14470;SDS011;7321;50.802;4.336;2024-03-07T02:03:57;52.47;;;35.13;;
14470;SDS011;7321;50.802;4.336;2024-03-07T02:06:23;61.03;;;37.60;;
14470;SDS011;7321;50.802;4.336;2024-03-07T02:08:50;54.13;;;35.23;;
14470;SDS011;7321;50.802;4.336;2024-03-07T02:11:16;55.37;;;36.10;;
14470;SDS011;7321;50.802;4.336;2024-03-07T02:13:42;52.50;;;35.33;;
14470;SDS011;7321;50.802;4.336;2024-03-07T02:16:08;58.27;;;37.63;;
14470;SDS011;7321;50.802;4.336;2024-03-07T02:18:35;53.77;;;35.07;;
14470;SDS011;7321;50.802;4.336;2024-03-07T02:21:07;58.53;;;37.77;;
14470;SDS011;7321;50.802;4.336;2024-03-07T02:23:34;57.87;;;37.67;;
14470;SDS011;7321;50.802;4.336;2024-03-07T02:26:00;58.87;;;38.13;;
14470;SDS011;7321;50.802;4.336;2024-03-07T02:28:25;54.80;;;35.70;;
14470;SDS011;7321;50.802;4.336;2024-03-07T02:30:51;59.10;;;37.73;;
14470;SDS011;7321;50.802;4.336;2024-03-07T02:33:17;58.50;;;38.17;;
14470;SDS011;7321;50.802;4.336;2024-03-07T02:35:43;56.00;;;37.43;;
14470;SDS011;7321;50.802;4.336;2024-03-07T02:38:08;59.80;;;40.07;;
14470;SDS011;7321;50.802;4.336;2024-03-07T02:40:35;61.47;;;38.97;;
14470;SDS011;7321;50.802;4.336;2024-03-07T02:43:00;59.63;;;38.87;;
14470;SDS011;7321;50.802;4.336;2024-03-07T02:45:30;61.37;;;38.53;;
14470;SDS011;7321;50.802;4.336;2024-03-07T02:47:56;56.50;;;38.43;;
14470;SDS011;7321;50.802;4.336;2024-03-07T02:50:22;61.47;;;38.80;;
14470;SDS011;7321;50.802;4.336;2024-03-07T02:52:48;57.33;;;38.47;;
14470;SDS011;7321;50.802;4.336;2024-03-07T02:55:15;60.17;;;39.13;;
14470;SDS011;7321;50.802;4.336;2024-03-07T02:57:41;63.47;;;38.90;;
14470;SDS011;7321;50.802;4.336;2024-03-07T03:00:07;61.97;;;39.17;;
14470;SDS011;7321;50.802;4.336;2024-03-07T03:02:47;60.37;;;38.43;;
14470;SDS011;7321;50.802;4.336;2024-03-07T03:05:14;61.57;;;38.50;;
14470;SDS011;7321;50.802;4.336;2024-03-07T03:07:41;69.37;;;40.73;;
14470;SDS011;7321;50.802;4.336;2024-03-07T03:10:07;64.93;;;40.03;;
14470;SDS011;7321;50.802;4.336;2024-03-07T03:12:38;70.53;;;41.97;;
14470;SDS011;7321;50.802;4.336;2024-03-07T03:15:04;68.53;;;41.23;;
14470;SDS011;7321;50.802;4.336;2024-03-07T03:17:32;63.43;;;41.00;;
14470;SDS011;7321;50.802;4.336;2024-03-07T03:19:57;67.07;;;42.27;;
14470;SDS011;7321;50.802;4.336;2024-03-07T03:22:23;67.80;;;42.80;;
14470;SDS011;7321;50.802;4.336;2024-03-07T03:24:49;71.43;;;42.90;;
14470;SDS011;7321;50.802;4.336;2024-03-07T03:27:15;66.40;;;42.60;;
14470;SDS011;7321;50.802;4.336;2024-03-07T03:29:40;69.03;;;42.80;;
14470;SDS011;7321;50.802;4.336;2024-03-07T03:32:06;66.27;;;41.53;;
14470;SDS011;7321;50.802;4.336;2024-03-07T03:34:32;66.07;;;43.17;;
14470;SDS011;7321;50.802;4.336;2024-03-07T03:36:59;65.97;;;41.80;;
14470;SDS011;7321;50.802;4.336;2024-03-07T03:39:24;66.57;;;41.80;;
14470;SDS011;7321;50.802;4.336;2024-03-07T03:41:52;64.93;;;41.60;;
14470;SDS011;7321;50.802;4.336;2024-03-07T03:44:18;65.93;;;42.40;;
14470;SDS011;7321;50.802;4.336;2024-03-07T03:46:43;67.47;;;42.37;;
14470;SDS011;7321;50.802;4.336;2024-03-07T03:49:09;69.33;;;41.50;;
14470;SDS011;7321;50.802;4.336;2024-03-07T03:51:35;66.13;;;42.03;;
14470;SDS011;7321;50.802;4.336;2024-03-07T03:54:01;67.03;;;41.47;;
14470;SDS011;7321;50.802;4.336;2024-03-07T03:56:27;68.03;;;40.77;;
14470;SDS011;7321;50.802;4.336;2024-03-07T03:58:53;66.43;;;41.37;;
14470;SDS011;7321;50.802;4.336;2024-03-07T04:01:19;66.03;;;41.13;;
14470;SDS011;7321;50.802;4.336;2024-03-07T04:03:45;74.20;;;43.63;;
14470;SDS011;7321;50.802;4.336;2024-03-07T04:06:13;70.70;;;43.33;;
14470;SDS011;7321;50.802;4.336;2024-03-07T04:08:40;64.53;;;40.23;;
14470;SDS011;7321;50.802;4.336;2024-03-07T04:11:06;67.63;;;43.07;;
14470;SDS011;7321;50.802;4.336;2024-03-07T04:13:35;65.53;;;42.40;;
14470;SDS011;7321;50.802;4.336;2024-03-07T04:16:00;65.40;;;42.53;;
14470;SDS011;7321;50.802;4.336;2024-03-07T04:18:26;70.90;;;43.13;;
14470;SDS011;7321;50.802;4.336;2024-03-07T04:20:52;72.10;;;42.97;;
14470;SDS011;7321;50.802;4.336;2024-03-07T04:23:19;74.27;;;45.10;;
14470;SDS011;7321;50.802;4.336;2024-03-07T04:25:45;69.70;;;43.87;;
14470;SDS011;7321;50.802;4.336;2024-03-07T04:28:11;72.67;;;44.67;;
14470;SDS011;7321;50.802;4.336;2024-03-07T04:30:37;69.33;;;43.27;;
14470;SDS011;7321;50.802;4.336;2024-03-07T04:33:02;67.07;;;40.67;;
14470;SDS011;7321;50.802;4.336;2024-03-07T04:35:29;76.13;;;43.67;;
14470;SDS011;7321;50.802;4.336;2024-03-07T04:37:56;70.47;;;44.37;;
14470;SDS011;7321;50.802;4.336;2024-03-07T04:40:22;71.13;;;43.87;;
14470;SDS011;7321;50.802;4.336;2024-03-07T04:42:49;71.00;;;43.90;;
14470;SDS011;7321;50.802;4.336;2024-03-07T04:45:15;75.50;;;44.83;;
14470;SDS011;7321;50.802;4.336;2024-03-07T04:47:41;72.70;;;44.83;;
14470;SDS011;7321;50.802;4.336;2024-03-07T04:50:08;79.97;;;46.03;;
14470;SDS011;7321;50.802;4.336;2024-03-07T04:52:40;75.80;;;45.37;;
14470;SDS011;7321;50.802;4.336;2024-03-07T04:55:06;78.63;;;46.20;;
14470;SDS011;7321;50.802;4.336;2024-03-07T04:57:38;71.07;;;42.27;;
14470;SDS011;7321;50.802;4.336;2024-03-07T05:00:06;78.87;;;47.40;;
14470;SDS011;7321;50.802;4.336;2024-03-07T05:02:38;80.10;;;45.47;;
14470;SDS011;7321;50.802;4.336;2024-03-07T05:05:05;71.30;;;44.67;;
14470;SDS011;7321;50.802;4.336;2024-03-07T05:07:31;75.20;;;44.83;;
14470;SDS011;7321;50.802;4.336;2024-03-07T05:09:57;83.63;;;46.10;;
14470;SDS011;7321;50.802;4.336;2024-03-07T05:12:22;79.77;;;46.77;;
14470;SDS011;7321;50.802;4.336;2024-03-07T05:14:48;78.90;;;44.67;;
14470;SDS011;7321;50.802;4.336;2024-03-07T05:17:14;86.97;;;49.30;;
14470;SDS011;7321;50.802;4.336;2024-03-07T05:19:40;85.07;;;45.40;;
14470;SDS011;7321;50.802;4.336;2024-03-07T05:22:05;73.63;;;44.97;;
14470;SDS011;7321;50.802;4.336;2024-03-07T05:24:32;75.33;;;45.30;;
14470;SDS011;7321;50.802;4.336;2024-03-07T05:26:59;80.00;;;47.40;;
14470;SDS011;7321;50.802;4.336;2024-03-07T05:29:25;76.70;;;45.03;;
14470;SDS011;7321;50.802;4.336;2024-03-07T05:31:51;78.30;;;47.17;;
14470;SDS011;7321;50.802;4.336;2024-03-07T05:34:16;77.80;;;45.60;;
14470;SDS011;7321;50.802;4.336;2024-03-07T05:36:45;84.60;;;47.67;;
14470;SDS011;7321;50.802;4.336;2024-03-07T05:39:16;80.73;;;47.33;;
14470;SDS011;7321;50.802;4.336;2024-03-07T05:41:43;86.57;;;48.53;;
14470;SDS011;7321;50.802;4.336;2024-03-07T05:44:10;88.47;;;49.20;;
14470;SDS011;7321;50.802;4.336;2024-03-07T05:46:37;99.20;;;51.07;;
14470;SDS011;7321;50.802;4.336;2024-03-07T05:49:07;93.13;;;49.43;;
14470;SDS011;7321;50.802;4.336;2024-03-07T05:51:34;93.43;;;50.30;;
14470;SDS011;7321;50.802;4.336;2024-03-07T05:54:00;91.00;;;50.23;;
14470;SDS011;7321;50.802;4.336;2024-03-07T05:56:26;100.07;;;51.77;;
14470;SDS011;7321;50.802;4.336;2024-03-07T05:58:52;99.47;;;53.47;;
14470;SDS011;7321;50.802;4.336;2024-03-07T06:01:18;107.80;;;55.93;;
14470;SDS011;7321;50.802;4.336;2024-03-07T06:03:44;97.83;;;50.73;;
14470;SDS011;7321;50.802;4.336;2024-03-07T06:06:11;94.57;;;50.10;;
14470;SDS011;7321;50.802;4.336;2024-03-07T06:08:37;96.60;;;50.20;;
14470;SDS011;7321;50.802;4.336;2024-03-07T06:11:07;100.70;;;48.97;;
14470;SDS011;7321;50.802;4.336;2024-03-07T06:13:33;93.70;;;49.90;;
14470;SDS011;7321;50.802;4.336;2024-03-07T06:15:59;100.83;;;50.57;;
14470;SDS011;7321;50.802;4.336;2024-03-07T06:18:29;101.60;;;50.27;;
14470;SDS011;7321;50.802;4.336;2024-03-07T06:20:56;97.07;;;49.00;;
14470;SDS011;7321;50.802;4.336;2024-03-07T06:23:22;90.60;;;49.67;;
14470;SDS011;7321;50.802;4.336;2024-03-07T06:25:49;101.83;;;49.67;;
14470;SDS011;7321;50.802;4.336;2024-03-07T06:28:19;96.33;;;50.00;;
14470;SDS011;7321;50.802;4.336;2024-03-07T06:30:45;99.70;;;49.77;;
14470;SDS011;7321;50.802;4.336;2024-03-07T06:33:12;94.87;;;49.20;;
14470;SDS011;7321;50.802;4.336;2024-03-07T06:35:39;96.20;;;49.20;;
14470;SDS011;7321;50.802;4.336;2024-03-07T06:38:06;95.07;;;48.20;;
14470;SDS011;7321;50.802;4.336;2024-03-07T06:40:33;96.50;;;49.93;;
14470;SDS011;7321;50.802;4.336;2024-03-07T06:43:07;95.53;;;48.80;;
14470;SDS011;7321;50.802;4.336;2024-03-07T06:45:37;98.23;;;51.03;;
14470;SDS011;7321;50.802;4.336;2024-03-07T06:48:04;95.30;;;49.60;;
14470;SDS011;7321;50.802;4.336;2024-03-07T06:50:34;97.70;;;50.13;;
14470;SDS011;7321;50.802;4.336;2024-03-07T06:53:00;95.57;;;51.03;;
14470;SDS011;7321;50.802;4.336;2024-03-07T06:55:26;93.73;;;49.87;;
14470;SDS011;7321;50.802;4.336;2024-03-07T06:57:53;91.23;;;46.90;;
14470;SDS011;7321;50.802;4.336;2024-03-07T07:00:19;95.40;;;49.53;;
14470;SDS011;7321;50.802;4.336;2024-03-07T07:02:46;93.53;;;48.30;;
14470;SDS011;7321;50.802;4.336;2024-03-07T07:05:13;95.07;;;48.83;;
14470;SDS011;7321;50.802;4.336;2024-03-07T07:07:43;86.13;;;45.73;;
14470;SDS011;7321;50.802;4.336;2024-03-07T07:10:10;87.13;;;46.10;;
14470;SDS011;7321;50.802;4.336;2024-03-07T07:12:48;91.20;;;48.27;;
14470;SDS011;7321;50.802;4.336;2024-03-07T07:15:18;90.60;;;47.60;;
14470;SDS011;7321;50.802;4.336;2024-03-07T07:17:46;89.77;;;45.87;;
14470;SDS011;7321;50.802;4.336;2024-03-07T07:20:14;88.03;;;46.80;;
14470;SDS011;7321;50.802;4.336;2024-03-07T07:22:43;82.53;;;45.47;;
14470;SDS011;7321;50.802;4.336;2024-03-07T07:25:14;86.77;;;47.87;;
14470;SDS011;7321;50.802;4.336;2024-03-07T07:27:48;79.97;;;45.70;;
14470;SDS011;7321;50.802;4.336;2024-03-07T07:30:16;82.03;;;45.93;;
14470;SDS011;7321;50.802;4.336;2024-03-07T07:32:43;81.50;;;45.23;;
14470;SDS011;7321;50.802;4.336;2024-03-07T07:35:10;77.33;;;42.37;;
14470;SDS011;7321;50.802;4.336;2024-03-07T07:40:24;76.23;;;42.37;;
14470;SDS011;7321;50.802;4.336;2024-03-07T07:42:52;81.37;;;43.57;;
14470;SDS011;7321;50.802;4.336;2024-03-07T07:45:19;77.53;;;42.67;;
14470;SDS011;7321;50.802;4.336;2024-03-07T07:47:47;78.60;;;43.97;;
14470;SDS011;7321;50.802;4.336;2024-03-07T07:50:31;77.03;;;42.77;;
14470;SDS011;7321;50.802;4.336;2024-03-07T07:52:59;81.93;;;43.30;;
14470;SDS011;7321;50.802;4.336;2024-03-07T07:55:26;82.97;;;44.03;;
14470;SDS011;7321;50.802;4.336;2024-03-07T07:57:53;80.43;;;43.47;;
14470;SDS011;7321;50.802;4.336;2024-03-07T08:00:21;85.63;;;45.43;;
14470;SDS011;7321;50.802;4.336;2024-03-07T08:02:49;80.70;;;45.43;;
14470;SDS011;7321;50.802;4.336;2024-03-07T08:05:17;86.53;;;45.00;;
14470;SDS011;7321;50.802;4.336;2024-03-07T08:07:46;89.23;;;44.97;;
14470;SDS011;7321;50.802;4.336;2024-03-07T08:10:13;85.00;;;42.97;;
14470;SDS011;7321;50.802;4.336;2024-03-07T08:12:40;85.03;;;44.63;;
14470;SDS011;7321;50.802;4.336;2024-03-07T08:15:09;89.83;;;45.53;;
14470;SDS011;7321;50.802;4.336;2024-03-07T08:17:45;91.07;;;46.00;;
14470;SDS011;7321;50.802;4.336;2024-03-07T08:20:15;86.13;;;43.77;;
14470;SDS011;7321;50.802;4.336;2024-03-07T08:22:46;80.27;;;43.33;;
14470;SDS011;7321;50.802;4.336;2024-03-07T08:25:14;90.30;;;45.00;;
14470;SDS011;7321;50.802;4.336;2024-03-07T08:27:43;83.77;;;44.30;;
14470;SDS011;7321;50.802;4.336;2024-03-07T08:30:11;94.07;;;44.53;;
14470;SDS011;7321;50.802;4.336;2024-03-07T08:35:07;78.23;;;41.70;;
14470;SDS011;7321;50.802;4.336;2024-03-07T08:37:40;84.40;;;43.07;;
14470;SDS011;7321;50.802;4.336;2024-03-07T08:40:20;75.00;;;41.87;;
14470;SDS011;7321;50.802;4.336;2024-03-07T08:42:48;81.63;;;44.63;;
14470;SDS011;7321;50.802;4.336;2024-03-07T08:45:16;80.10;;;41.73;;
14470;SDS011;7321;50.802;4.336;2024-03-07T08:47:44;73.80;;;40.47;;
14470;SDS011;7321;50.802;4.336;2024-03-07T08:50:12;75.47;;;40.73;;
14470;SDS011;7321;50.802;4.336;2024-03-07T08:52:39;69.37;;;39.97;;
14470;SDS011;7321;50.802;4.336;2024-03-07T08:55:06;75.97;;;41.57;;
14470;SDS011;7321;50.802;4.336;2024-03-07T08:57:36;71.30;;;39.90;;
14470;SDS011;7321;50.802;4.336;2024-03-07T09:00:05;72.77;;;37.87;;
14470;SDS011;7321;50.802;4.336;2024-03-07T09:02:36;69.60;;;38.07;;
14470;SDS011;7321;50.802;4.336;2024-03-07T09:05:05;71.30;;;39.40;;
14470;SDS011;7321;50.802;4.336;2024-03-07T09:07:31;63.90;;;37.63;;
14470;SDS011;7321;50.802;4.336;2024-03-07T09:09:57;73.53;;;38.90;;
14470;SDS011;7321;50.802;4.336;2024-03-07T09:12:23;68.07;;;38.47;;
14470;SDS011;7321;50.802;4.336;2024-03-07T09:14:52;67.33;;;37.37;;
14470;SDS011;7321;50.802;4.336;2024-03-07T09:17:19;62.83;;;36.57;;
14470;SDS011;7321;50.802;4.336;2024-03-07T09:19:45;60.00;;;35.43;;
14470;SDS011;7321;50.802;4.336;2024-03-07T09:22:11;61.60;;;37.20;;
14470;SDS011;7321;50.802;4.336;2024-03-07T09:24:37;60.37;;;36.60;;
14470;SDS011;7321;50.802;4.336;2024-03-07T09:27:03;58.33;;;35.63;;
14470;SDS011;7321;50.802;4.336;2024-03-07T09:29:30;61.27;;;35.90;;
14470;SDS011;7321;50.802;4.336;2024-03-07T09:31:56;60.37;;;36.30;;
14470;SDS011;7321;50.802;4.336;2024-03-07T09:34:23;63.50;;;36.63;;
14470;SDS011;7321;50.802;4.336;2024-03-07T09:36:50;55.23;;;34.27;;
14470;SDS011;7321;50.802;4.336;2024-03-07T09:39:16;80.07;;;51.27;;
14470;SDS011;7321;50.802;4.336;2024-03-07T09:41:43;65.87;;;37.57;;
14470;SDS011;7321;50.802;4.336;2024-03-07T09:44:14;61.00;;;35.73;;
14470;SDS011;7321;50.802;4.336;2024-03-07T09:46:47;62.17;;;37.23;;
14470;SDS011;7321;50.802;4.336;2024-03-07T09:49:15;64.50;;;38.83;;
14470;SDS011;7321;50.802;4.336;2024-03-07T09:51:43;60.93;;;38.07;;
14470;SDS011;7321;50.802;4.336;2024-03-07T09:54:10;63.03;;;37.83;;
14470;SDS011;7321;50.802;4.336;2024-03-07T09:56:37;61.17;;;35.13;;
14470;SDS011;7321;50.802;4.336;2024-03-07T09:59:05;60.00;;;37.07;;
14470;SDS011;7321;50.802;4.336;2024-03-07T10:01:34;61.83;;;37.77;;
14470;SDS011;7321;50.802;4.336;2024-03-07T10:04:02;62.73;;;36.63;;
14470;SDS011;7321;50.802;4.336;2024-03-07T10:06:40;58.40;;;36.03;;
14470;SDS011;7321;50.802;4.336;2024-03-07T10:09:09;62.00;;;34.90;;
14470;SDS011;7321;50.802;4.336;2024-03-07T10:11:38;57.20;;;35.43;;
14470;SDS011;7321;50.802;4.336;2024-03-07T10:14:07;60.27;;;36.27;;
14470;SDS011;7321;50.802;4.336;2024-03-07T10:16:36;58.67;;;36.17;;
14470;SDS011;7321;50.802;4.336;2024-03-07T10:19:05;60.17;;;36.57;;
14470;SDS011;7321;50.802;4.336;2024-03-07T10:21:33;56.60;;;35.87;;
14470;SDS011;7321;50.802;4.336;2024-03-07T10:24:07;56.20;;;36.30;;
14470;SDS011;7321;50.802;4.336;2024-03-07T10:26:34;55.57;;;34.43;;
14470;SDS011;7321;50.802;4.336;2024-03-07T10:29:01;54.77;;;34.70;;
14470;SDS011;7321;50.802;4.336;2024-03-07T10:31:36;55.60;;;36.70;;
14470;SDS011;7321;50.802;4.336;2024-03-07T10:34:03;55.97;;;35.90;;
14470;SDS011;7321;50.802;4.336;2024-03-07T10:36:30;52.43;;;32.77;;
14470;SDS011;7321;50.802;4.336;2024-03-07T10:39:00;54.47;;;33.80;;
14470;SDS011;7321;50.802;4.336;2024-03-07T10:41:49;49.07;;;34.27;;
14470;SDS011;7321;50.802;4.336;2024-03-07T10:44:18;51.27;;;33.93;;
14470;SDS011;7321;50.802;4.336;2024-03-07T10:46:55;53.47;;;35.17;;
14470;SDS011;7321;50.802;4.336;2024-03-07T10:49:22;58.80;;;38.03;;
14470;SDS011;7321;50.802;4.336;2024-03-07T10:52:06;54.77;;;36.13;;
14470;SDS011;7321;50.802;4.336;2024-03-07T10:58:02;59.07;;;39.47;;
14470;SDS011;7321;50.802;4.336;2024-03-07T11:00:34;49.07;;;33.23;;
14470;SDS011;7321;50.802;4.336;2024-03-07T11:03:02;55.60;;;35.30;;
14470;SDS011;7321;50.802;4.336;2024-03-07T11:05:36;58.13;;;38.63;;
14470;SDS011;7321;50.802;4.336;2024-03-07T11:08:04;50.43;;;35.30;;
14470;SDS011;7321;50.802;4.336;2024-03-07T11:10:39;56.10;;;35.83;;
14470;SDS011;7321;50.802;4.336;2024-03-07T11:13:07;50.80;;;34.33;;
14470;SDS011;7321;50.802;4.336;2024-03-07T11:15:39;49.97;;;33.33;;
14470;SDS011;7321;50.802;4.336;2024-03-07T11:18:08;53.53;;;34.77;;
14470;SDS011;7321;50.802;4.336;2024-03-07T11:20:35;48.40;;;33.03;;
14470;SDS011;7321;50.802;4.336;2024-03-07T11:23:45;46.93;;;32.23;;
14470;SDS011;7321;50.802;4.336;2024-03-07T11:26:01;43.60;;;31.07;;
14470;SDS011;7321;50.802;4.336;2024-03-07T11:28:38;45.77;;;30.97;;
14470;SDS011;7321;50.802;4.336;2024-03-07T11:31:25;46.07;;;30.53;;
14470;SDS011;7321;50.802;4.336;2024-03-07T11:34:11;41.03;;;29.33;;
14470;SDS011;7321;50.802;4.336;2024-03-07T11:36:45;38.57;;;28.40;;
14470;SDS011;7321;50.802;4.336;2024-03-07T11:42:26;40.40;;;28.43;;
14470;SDS011;7321;50.802;4.336;2024-03-07T11:44:56;42.50;;;30.70;;
14470;SDS011;7321;50.802;4.336;2024-03-07T11:47:24;37.57;;;28.80;;
14470;SDS011;7321;50.802;4.336;2024-03-07T11:49:54;38.97;;;28.90;;
14470;SDS011;7321;50.802;4.336;2024-03-07T11:52:23;38.20;;;29.40;;
14470;SDS011;7321;50.802;4.336;2024-03-07T11:54:50;40.73;;;29.33;;
14470;SDS011;7321;50.802;4.336;2024-03-07T11:57:16;38.30;;;27.93;;
14470;SDS011;7321;50.802;4.336;2024-03-07T11:59:58;37.57;;;28.90;;
14470;SDS011;7321;50.802;4.336;2024-03-07T12:02:29;39.07;;;28.23;;
14470;SDS011;7321;50.802;4.336;2024-03-07T12:04:55;36.43;;;27.43;;
14470;SDS011;7321;50.802;4.336;2024-03-07T12:07:20;39.07;;;26.17;;
14470;SDS011;7321;50.802;4.336;2024-03-07T12:09:48;38.80;;;27.90;;
14470;SDS011;7321;50.802;4.336;2024-03-07T12:12:19;35.87;;;26.57;;
14470;SDS011;7321;50.802;4.336;2024-03-07T12:14:55;36.53;;;27.90;;
14470;SDS011;7321;50.802;4.336;2024-03-07T12:17:22;38.40;;;26.87;;
14470;SDS011;7321;50.802;4.336;2024-03-07T12:19:48;35.10;;;27.20;;
14470;SDS011;7321;50.802;4.336;2024-03-07T12:22:21;36.20;;;27.23;;
14470;SDS011;7321;50.802;4.336;2024-03-07T12:25:02;35.50;;;27.60;;
14470;SDS011;7321;50.802;4.336;2024-03-07T12:27:33;34.83;;;27.53;;
14470;SDS011;7321;50.802;4.336;2024-03-07T12:29:59;36.10;;;26.97;;
14470;SDS011;7321;50.802;4.336;2024-03-07T12:32:33;37.67;;;25.97;;
14470;SDS011;7321;50.802;4.336;2024-03-07T12:34:59;35.97;;;26.53;;
14470;SDS011;7321;50.802;4.336;2024-03-07T12:37:24;36.07;;;26.53;;
14470;SDS011;7321;50.802;4.336;2024-03-07T12:39:54;37.27;;;27.43;;
14470;SDS011;7321;50.802;4.336;2024-03-07T12:42:27;36.20;;;26.17;;
14470;SDS011;7321;50.802;4.336;2024-03-07T12:44:57;32.10;;;25.67;;
14470;SDS011;7321;50.802;4.336;2024-03-07T12:47:24;34.40;;;25.97;;
14470;SDS011;7321;50.802;4.336;2024-03-07T12:49:51;29.90;;;24.10;;
14470;SDS011;7321;50.802;4.336;2024-03-07T12:52:17;33.63;;;25.30;;
14470;SDS011;7321;50.802;4.336;2024-03-07T12:54:42;31.83;;;24.13;;
14470;SDS011;7321;50.802;4.336;2024-03-07T12:57:08;31.50;;;26.20;;
14470;SDS011;7321;50.802;4.336;2024-03-07T12:59:38;31.43;;;25.27;;
14470;SDS011;7321;50.802;4.336;2024-03-07T13:02:11;33.07;;;26.73;;
14470;SDS011;7321;50.802;4.336;2024-03-07T13:04:37;31.30;;;25.03;;
14470;SDS011;7321;50.802;4.336;2024-03-07T13:07:04;31.77;;;26.47;;
14470;SDS011;7321;50.802;4.336;2024-03-07T13:09:33;33.00;;;27.37;;
14470;SDS011;7321;50.802;4.336;2024-03-07T13:12:00;33.30;;;27.27;;
14470;SDS011;7321;50.802;4.336;2024-03-07T13:14:32;35.00;;;26.80;;
14470;SDS011;7321;50.802;4.336;2024-03-07T13:16:59;31.13;;;26.37;;
14470;SDS011;7321;50.802;4.336;2024-03-07T13:19:27;35.93;;;26.97;;
14470;SDS011;7321;50.802;4.336;2024-03-07T13:21:55;36.33;;;27.80;;
14470;SDS011;7321;50.802;4.336;2024-03-07T13:24:22;33.03;;;27.50;;
14470;SDS011;7321;50.802;4.336;2024-03-07T13:26:48;33.80;;;27.10;;
14470;SDS011;7321;50.802;4.336;2024-03-07T13:29:14;31.57;;;25.83;;
14470;SDS011;7321;50.802;4.336;2024-03-07T13:31:42;33.73;;;27.10;;
14470;SDS011;7321;50.802;4.336;2024-03-07T13:34:09;35.47;;;25.87;;
14470;SDS011;7321;50.802;4.336;2024-03-07T13:36:39;36.77;;;27.43;;
14470;SDS011;7321;50.802;4.336;2024-03-07T13:39:09;37.03;;;28.20;;
14470;SDS011;7321;50.802;4.336;2024-03-07T13:41:37;37.23;;;28.53;;
14470;SDS011;7321;50.802;4.336;2024-03-07T13:44:03;33.40;;;27.23;;
14470;SDS011;7321;50.802;4.336;2024-03-07T13:46:30;35.10;;;27.43;;
14470;SDS011;7321;50.802;4.336;2024-03-07T13:48:59;32.83;;;26.53;;
14470;SDS011;7321;50.802;4.336;2024-03-07T13:51:41;33.73;;;27.40;;
14470;SDS011;7321;50.802;4.336;2024-03-07T13:54:19;38.23;;;27.90;;
14470;SDS011;7321;50.802;4.336;2024-03-07T13:59:57;32.90;;;26.67;;
14470;SDS011;7321;50.802;4.336;2024-03-07T14:02:37;32.90;;;25.17;;
14470;SDS011;7321;50.802;4.336;2024-03-07T14:26:49;30.73;;;25.43;;
14470;SDS011;7321;50.802;4.336;2024-03-07T14:32:04;30.33;;;23.67;;
14470;SDS011;7321;50.802;4.336;2024-03-07T14:37:25;31.87;;;22.97;;
14470;SDS011;7321;50.802;4.336;2024-03-07T14:40:31;29.10;;;22.80;;
14470;SDS011;7321;50.802;4.336;2024-03-07T14:42:51;26.17;;;22.00;;
14470;SDS011;7321;50.802;4.336;2024-03-07T14:45:23;26.93;;;22.53;;
14470;SDS011;7321;50.802;4.336;2024-03-07T14:47:55;26.40;;;22.03;;
14470;SDS011;7321;50.802;4.336;2024-03-07T14:50:22;30.07;;;22.67;;
14470;SDS011;7321;50.802;4.336;2024-03-07T14:52:51;26.83;;;23.17;;
14470;SDS011;7321;50.802;4.336;2024-03-07T14:55:18;29.30;;;22.43;;
14470;SDS011;7321;50.802;4.336;2024-03-07T14:57:44;30.20;;;23.00;;
14470;SDS011;7321;50.802;4.336;2024-03-07T15:00:11;26.57;;;21.93;;
14470;SDS011;7321;50.802;4.336;2024-03-07T15:02:52;26.80;;;21.00;;
14470;SDS011;7321;50.802;4.336;2024-03-07T15:05:23;26.17;;;21.80;;
14470;SDS011;7321;50.802;4.336;2024-03-07T15:07:50;27.37;;;21.57;;
14470;SDS011;7321;50.802;4.336;2024-03-07T15:10:21;27.20;;;21.10;;
14470;SDS011;7321;50.802;4.336;2024-03-07T15:13:03;23.43;;;20.93;;
14470;SDS011;7321;50.802;4.336;2024-03-07T15:15:29;27.80;;;21.77;;
14470;SDS011;7321;50.802;4.336;2024-03-07T15:17:56;27.47;;;21.37;;
14470;SDS011;7321;50.802;4.336;2024-03-07T15:20:23;27.33;;;21.53;;
14470;SDS011;7321;50.802;4.336;2024-03-07T15:22:55;27.70;;;22.07;;